createdAt,value
2023-01-15T00:03:48.657Z,8.8
2023-01-15T00:09:38.315Z,8.9
2023-01-15T00:14:48.604Z,8.6
2023-01-15T00:19:48.617Z,8.6
2023-01-15T00:25:38.296Z,8.6
2023-01-15T00:30:38.325Z,8.7
2023-01-15T00:35:48.627Z,8.5
2023-01-15T00:41:38.317Z,8.3
2023-01-15T00:46:38.351Z,8.3
2023-01-15T00:51:48.613Z,8.3
2023-01-15T00:56:48.640Z,8.3
2023-01-15T01:02:38.373Z,8.2
2023-01-15T01:07:48.588Z,8.3
2023-01-15T01:12:48.600Z,8.2
2023-01-15T01:17:48.592Z,8.2
2023-01-15T01:22:48.610Z,8.1
2023-01-15T01:28:38.285Z,8.1
2023-01-15T01:33:38.305Z,8.1
2023-01-15T01:38:38.307Z,8.1
2023-01-15T01:43:48.602Z,8.1
2023-01-15T01:49:38.292Z,8.2
2023-01-15T01:54:38.341Z,8.2
2023-01-15T01:59:48.588Z,8.1
2023-01-15T02:05:38.310Z,8.1
2023-01-15T02:10:38.308Z,8.1
2023-01-15T02:15:38.298Z,8.1
2023-01-15T02:20:38.341Z,8.1
2023-01-15T02:25:48.595Z,8.1
2023-01-15T02:30:48.606Z,7.9
2023-01-15T02:36:38.353Z,8
2023-01-15T02:41:48.590Z,8
2023-01-15T02:46:48.616Z,7.9
2023-01-15T02:52:38.478Z,7.9
2023-01-15T02:57:48.594Z,7.8
2023-01-15T03:02:48.684Z,7.8
2023-01-15T03:08:38.313Z,7.9
2023-01-15T03:13:48.617Z,7.9
2023-01-15T03:18:48.612Z,8
2023-01-15T03:24:38.316Z,8
2023-01-15T03:29:48.593Z,7.9
2023-01-15T03:34:48.604Z,7.8
2023-01-15T03:40:38.331Z,7.9
2023-01-15T03:45:38.476Z,7.9
2023-01-15T03:50:38.331Z,7.8
2023-01-15T03:55:48.629Z,7.8
2023-01-15T04:01:38.430Z,7.6
2023-01-15T04:06:48.616Z,7.6
2023-01-15T04:12:38.309Z,7.6
2023-01-15T04:17:38.364Z,7.5
2023-01-15T04:22:48.603Z,7.6
2023-01-15T04:28:38.320Z,7.6
2023-01-15T04:33:48.602Z,7.6
2023-01-15T04:38:48.615Z,7.6
2023-01-15T04:43:48.630Z,7.6
2023-01-15T04:49:38.426Z,7.6
2023-01-15T04:54:48.582Z,7.6
2023-01-15T04:59:48.584Z,7.6
2023-01-15T05:04:48.652Z,7.6
2023-01-15T05:10:38.313Z,7.6
2023-01-15T05:15:48.660Z,7.5
2023-01-15T05:20:48.601Z,7.5
2023-01-15T05:26:38.305Z,7.6
2023-01-15T05:31:38.340Z,7.6
2023-01-15T05:36:48.600Z,7.5
2023-01-15T05:42:38.304Z,7.6
2023-01-15T05:47:38.324Z,7.6
2023-01-15T05:52:48.583Z,7.4
2023-01-15T05:57:48.674Z,7.5
2023-01-15T06:03:38.385Z,7.5
2023-01-15T06:08:48.580Z,7.4
2023-01-15T06:13:48.614Z,7.4
2023-01-15T06:19:38.311Z,7.5
2023-01-15T06:24:48.682Z,7.3
2023-01-15T06:30:39.427Z,7.3
2023-01-15T06:35:48.594Z,7.4
2023-01-15T06:41:38.315Z,7.3
2023-01-15T06:46:38.362Z,7.3
2023-01-15T06:51:38.330Z,7.3
2023-01-15T06:56:48.589Z,7.2
2023-01-15T07:01:48.661Z,7.3
2023-01-15T07:06:48.610Z,7.3
2023-01-15T07:11:48.631Z,7.3
2023-01-15T07:17:38.325Z,7.1
2023-01-15T07:22:48.605Z,7.1
2023-01-15T07:27:48.648Z,7
2023-01-15T07:33:38.326Z,7.1
2023-01-15T07:38:48.595Z,7.1
2023-01-15T07:43:48.644Z,7
2023-01-15T07:49:38.304Z,7.1
2023-01-15T07:54:38.304Z,7.1
2023-01-15T07:59:38.324Z,7.2
2023-01-15T08:04:38.332Z,7.1
2023-01-15T08:09:48.610Z,7.3
2023-01-15T08:15:38.283Z,7.2
2023-01-15T08:20:38.289Z,7.3
2023-01-15T08:25:38.309Z,7.3
2023-01-15T08:30:48.587Z,7.3
2023-01-15T08:35:48.620Z,7.3
2023-01-15T08:41:38.315Z,7.2
2023-01-15T08:46:48.594Z,7.2
2023-01-15T08:51:48.631Z,7.4
2023-01-15T08:56:48.669Z,7.4
2023-01-15T09:02:38.351Z,7.5
2023-01-15T09:07:48.667Z,7.5
2023-01-15T09:13:38.325Z,7.5
2023-01-15T09:18:48.585Z,7.5
2023-01-15T09:24:38.336Z,7.6
2023-01-15T09:29:48.592Z,7.7
2023-01-15T09:35:38.304Z,7.7
2023-01-15T09:40:38.309Z,7.6
2023-01-15T09:45:38.309Z,7.6
2023-01-15T09:50:38.323Z,7.5
2023-01-15T09:55:38.323Z,7.6
2023-01-15T10:00:38.364Z,7.4
2023-01-15T10:05:48.599Z,7.5
2023-01-15T10:11:38.318Z,7.6
2023-01-15T10:29:38.323Z,7.7
2023-01-15T10:34:40.004Z,7.6
2023-01-15T10:39:48.648Z,7.7
2023-01-15T10:45:38.311Z,7.8
2023-01-15T10:50:48.545Z,8
2023-01-15T10:55:48.576Z,8
2023-01-15T11:01:38.382Z,8
2023-01-15T11:07:43.871Z,8.1
2023-01-15T11:12:48.604Z,8.1
2023-01-15T11:18:38.295Z,8.4
2023-01-15T11:23:38.327Z,8.7
2023-01-15T11:28:48.522Z,8.4
2023-01-15T11:33:48.606Z,8.3
2023-01-15T11:39:38.304Z,8
2023-01-15T11:44:38.302Z,8
2023-01-15T11:49:48.594Z,8
2023-01-15T11:55:38.323Z,7.8
2023-01-15T12:00:48.569Z,8
2023-01-15T12:06:38.262Z,7.9
2023-01-15T12:11:38.264Z,7.9
2023-01-15T12:16:48.513Z,7.8
2023-01-15T12:21:48.551Z,7.6
2023-01-15T12:26:48.605Z,7.8
2023-01-15T12:32:38.257Z,7.7
2023-01-15T12:37:38.306Z,7.6
2023-01-15T12:42:38.317Z,7.9
2023-01-15T12:47:38.310Z,7.6
2023-01-15T12:52:48.678Z,7.8
2023-01-15T12:58:38.306Z,7.7
2023-01-15T13:03:38.321Z,7.9
2023-01-15T13:08:45.347Z,7.8
2023-01-15T13:13:48.583Z,7.9
2023-01-15T13:18:48.617Z,8
2023-01-15T13:24:38.247Z,7.7
2023-01-15T13:29:38.313Z,7.7
2023-01-15T13:34:48.539Z,7.8
2023-01-15T13:39:48.586Z,7.8
2023-01-15T13:45:38.343Z,7.5
2023-01-15T13:50:38.327Z,7.5
2023-01-15T13:55:48.571Z,7.5
2023-01-15T14:00:48.591Z,7.6
2023-01-15T14:05:48.589Z,7.3
2023-01-15T14:10:48.599Z,7.6
2023-01-15T14:15:48.617Z,7.7
2023-01-15T14:21:38.310Z,7.6
2023-01-15T14:26:38.373Z,7.5
2023-01-15T14:31:48.628Z,7.5
2023-01-15T14:36:48.607Z,7.3
2023-01-15T14:41:48.652Z,7.3
2023-01-15T14:47:38.308Z,7.4
2023-01-15T14:52:38.378Z,7.6
2023-01-15T14:57:38.412Z,7.4
2023-01-15T15:02:56.940Z,7.4
2023-01-15T15:07:56.925Z,7.4
2023-01-15T15:13:38.381Z,7.6
2023-01-15T15:18:56.933Z,7.4
2023-01-15T15:24:38.401Z,7.4
2023-01-15T15:30:38.427Z,7.4
2023-01-15T15:35:38.566Z,7.3
2023-01-15T15:40:56.909Z,7.3
2023-01-15T15:45:56.951Z,7.5
2023-01-15T15:51:38.396Z,7.4
2023-01-15T15:56:38.472Z,7.6
2023-01-15T16:01:57.018Z,7.5
2023-01-15T16:06:56.923Z,7.5
2023-01-15T16:11:56.929Z,7.5
2023-01-15T16:17:38.432Z,7.7
2023-01-15T16:22:56.900Z,7.5
2023-01-15T16:27:56.916Z,7.6
2023-01-15T16:33:38.376Z,7.4
2023-01-15T16:38:56.928Z,7.3
2023-01-15T16:44:38.385Z,7.4
2023-01-15T16:49:56.914Z,7.4
2023-01-15T16:54:56.950Z,7.6
2023-01-15T17:00:38.387Z,7.6
2023-01-15T17:05:56.909Z,7.6
2023-01-15T17:11:38.391Z,7.6
2023-01-15T17:16:56.923Z,7.5
2023-01-15T17:22:38.401Z,7.7
2023-01-15T17:27:56.908Z,7.7
2023-01-15T17:32:56.901Z,7.7
2023-01-15T17:37:56.908Z,7.8
2023-01-15T17:43:38.408Z,7.8
2023-01-15T17:48:56.909Z,7.6
2023-01-15T17:53:56.920Z,7.7
2023-01-15T17:59:38.378Z,7.7
2023-01-15T18:04:56.893Z,7.8
2023-01-15T18:09:56.913Z,7.7
2023-01-15T18:15:38.378Z,7.7
2023-01-15T18:20:38.410Z,7.6
2023-01-15T18:25:56.908Z,7.6
2023-01-15T18:30:56.930Z,7.7
2023-01-15T18:35:56.919Z,7.6
2023-01-15T18:40:56.930Z,7.7
2023-01-15T18:46:38.512Z,7.7
2023-01-15T18:51:56.897Z,7.8
2023-01-15T18:56:56.927Z,7.8
2023-01-15T19:02:38.515Z,7.8
2023-01-15T19:07:38.392Z,7.7
2023-01-15T19:12:38.380Z,7.7
2023-01-15T19:17:38.428Z,7.6
2023-01-15T19:22:56.912Z,7.4
2023-01-15T19:27:56.917Z,7.4
2023-01-15T19:32:56.929Z,7.5
2023-01-15T19:38:38.382Z,7.3
2023-01-15T19:43:38.381Z,7.3
2023-01-15T19:48:38.384Z,7.4
2023-01-15T19:53:38.385Z,7.3
2023-01-15T19:58:38.387Z,7.2
2023-01-15T20:03:56.916Z,7.2
2023-01-15T20:09:38.387Z,7.2
2023-01-15T20:14:38.406Z,7.2
2023-01-15T20:19:56.887Z,7.3
2023-01-15T20:25:38.382Z,7.3
2023-01-15T20:30:56.902Z,7.4
2023-01-15T20:36:38.381Z,7.2
2023-01-15T20:41:38.423Z,7.4
2023-01-15T20:46:56.919Z,7.3
2023-01-15T20:52:38.356Z,7.3
2023-01-15T20:57:38.380Z,7.4
2023-01-15T21:02:38.479Z,7.4
2023-01-15T21:07:56.893Z,7.3
2023-01-15T21:12:56.902Z,7.5
2023-01-15T21:17:56.917Z,7.4
2023-01-15T21:22:56.916Z,7.5
2023-01-15T21:28:38.398Z,7.5
2023-01-15T21:33:38.412Z,7.4
2023-01-15T21:38:56.921Z,7.4
2023-01-15T21:43:56.916Z,7.3
2023-01-15T21:49:38.416Z,7.4
2023-01-15T21:54:56.931Z,7.5
2023-01-15T22:00:38.357Z,7.4
2023-01-15T22:05:38.448Z,7.4
2023-01-15T22:10:56.940Z,7.4
2023-01-15T22:16:38.444Z,7.4
2023-01-15T22:21:56.924Z,7.5
2023-01-15T22:27:38.394Z,7.6
2023-01-15T22:32:56.929Z,7.4
2023-01-15T22:38:38.419Z,7.4
2023-01-15T22:43:56.915Z,7.5
2023-01-15T22:48:56.918Z,7.5
2023-01-15T22:54:38.391Z,7.5
2023-01-15T22:59:56.910Z,7.5
2023-01-15T23:05:38.375Z,7.5
2023-01-15T23:10:38.375Z,7.4
2023-01-15T23:15:38.480Z,7.5
2023-01-15T23:20:56.913Z,7.4
2023-01-15T23:26:38.385Z,7.3
2023-01-15T23:31:38.424Z,7.3
2023-01-15T23:36:38.410Z,7.3
2023-01-15T23:41:56.912Z,7.3
2023-01-15T23:47:38.527Z,7.3
2023-01-15T23:52:38.434Z,7.2
2023-01-15T23:57:56.969Z,7.2
